Time;durP1;ratioP1;P1;durP2;ratioP2;P2;SDS_P1;SDS_P2;PMS_P1;PMS_P2;Temp;Humidity;BMP_temperature;BMP_pressure;BME280_temperature;BME280_humidity;BME280_pressure;Samples;Min_cycle;Max_cycle;Signal;HPM_P1;HPM_P2
2022/11/15 00:02:17;;;;;;;;;8.00;6.00;;;;;;;;5030658;28;46642;-80
2022/11/15 00:04:42;;;;;;;;;6.67;5.67;;;;;;;;5038673;28;45466;-81
2022/11/15 00:07:08;;;;;;;;;6.33;6.33;;;;;;;;5044975;28;45816;-81
2022/11/15 00:09:33;;;;;;;;;9.67;6.33;;;;;;;;5023672;28;45960;-80
2022/11/15 00:11:58;;;;;;;;;8.67;8.67;;;;;;;;5064302;28;45917;-81
2022/11/15 00:14:23;;;;;;;;;9.67;8.33;;;;;;;;5027743;28;45465;-79
2022/11/15 00:16:49;;;;;;;;;8.00;7.00;;;;;;;;5065346;28;45780;-80
2022/11/15 00:19:14;;;;;;;;;6.00;6.00;;;;;;;;5035676;28;45922;-80
2022/11/15 00:21:40;;;;;;;;;5.33;5.33;;;;;;;;5034111;28;46357;-80
2022/11/15 00:24:05;;;;;;;;;7.00;7.00;;;;;;;;5056025;28;45188;-77
2022/11/15 00:26:30;;;;;;;;;6.33;6.33;;;;;;;;5049548;28;45400;-80
2022/11/15 00:28:56;;;;;;;;;6.67;5.33;;;;;;;;5057280;28;45984;-81
2022/11/15 00:31:21;;;;;;;;;7.00;7.00;;;;;;;;5044466;28;48271;-80
2022/11/15 00:33:46;;;;;;;;;8.33;5.33;;;;;;;;5031815;28;45357;-80
2022/11/15 00:36:12;;;;;;;;;6.00;5.00;;;;;;;;5049884;28;45742;-81
2022/11/15 00:38:38;;;;;;;;;7.67;7.67;;;;;;;;5053244;28;45540;-80
2022/11/15 00:41:04;;;;;;;;;8.67;7.00;;;;;;;;5044735;28;47130;-80
2022/11/15 00:43:29;;;;;;;;;5.00;5.00;;;;;;;;5039346;28;45869;-80
2022/11/15 00:45:56;;;;;;;;;9.00;6.00;;;;;;;;5018652;28;45459;-79
2022/11/15 00:48:21;;;;;;;;;5.67;5.33;;;;;;;;5026576;28;45761;-80
2022/11/15 00:50:46;;;;;;;;;4.33;3.33;;;;;;;;5044813;28;46208;-79
2022/11/15 00:53:12;;;;;;;;;5.00;5.00;;;;;;;;5043535;28;45858;-80
2022/11/15 00:55:37;;;;;;;;;7.00;4.00;;;;;;;;5052656;28;46354;-78
2022/11/15 00:58:03;;;;;;;;;6.00;6.00;;;;;;;;5034887;28;45608;-78
2022/11/15 01:00:28;;;;;;;;;6.00;4.33;;;;;;;;5051832;28;47218;-79
2022/11/15 01:02:53;;;;;;;;;4.00;3.33;;;;;;;;5054641;28;45512;-80
2022/11/15 01:05:19;;;;;;;;;5.33;4.33;;;;;;;;5034281;28;45506;-80
2022/11/15 01:07:44;;;;;;;;;5.00;5.00;;;;;;;;5048906;28;45786;-77
2022/11/15 01:10:09;;;;;;;;;4.67;3.00;;;;;;;;5059005;28;45559;-78
2022/11/15 01:12:35;;;;;;;;;4.00;4.00;;;;;;;;5057817;28;45841;-79
2022/11/15 01:15:00;;;;;;;;;6.00;5.00;;;;;;;;5040042;28;45383;-79
2022/11/15 01:17:27;;;;;;;;;5.00;4.00;;;;;;;;5038272;28;45957;-80
2022/11/15 01:19:52;;;;;;;;;4.00;3.33;;;;;;;;5050474;28;45586;-80
2022/11/15 01:22:17;;;;;;;;;4.00;3.00;;;;;;;;5021212;28;45811;-80
2022/11/15 01:24:43;;;;;;;;;1.67;1.67;;;;;;;;5039208;28;45461;-80
2022/11/15 01:27:08;;;;;;;;;4.00;4.00;;;;;;;;5037537;28;45691;-80
2022/11/15 01:29:34;;;;;;;;;2.00;2.00;;;;;;;;5036072;28;48062;-80
2022/11/15 01:31:59;;;;;;;;;3.33;2.00;;;;;;;;5051473;28;45829;-79
2022/11/15 01:34:24;;;;;;;;;4.67;3.00;;;;;;;;5030097;28;45739;-78
2022/11/15 01:36:50;;;;;;;;;2.67;2.67;;;;;;;;5022597;28;46025;-80
2022/11/15 01:39:15;;;;;;;;;2.67;2.67;;;;;;;;5039969;28;48128;-79
2022/11/15 01:41:40;;;;;;;;;4.00;3.00;;;;;;;;5029703;28;45588;-82
2022/11/15 01:44:24;;;;;;;;;5.33;4.00;;;;;;;;5063427;28;45997;-81
2022/11/15 01:46:50;;;;;;;;;3.00;3.00;;;;;;;;5041556;28;45899;-82
2022/11/15 01:49:19;;;;;;;;;3.67;3.67;;;;;;;;5054810;28;45830;-80
2022/11/15 01:51:44;;;;;;;;;3.33;2.33;;;;;;;;5044336;28;45349;-81
2022/11/15 01:54:13;;;;;;;;;2.00;2.00;;;;;;;;5042073;28;45479;-80
2022/11/15 01:56:43;;;;;;;;;3.00;2.00;;;;;;;;5047641;28;45940;-81
2022/11/15 01:59:09;;;;;;;;;4.33;3.33;;;;;;;;5045360;28;47194;-81
2022/11/15 02:01:35;;;;;;;;;1.00;1.00;;;;;;;;5045450;28;45351;-82
2022/11/15 02:04:19;;;;;;;;;5.00;2.00;;;;;;;;5032773;28;45478;-80
2022/11/15 02:06:46;;;;;;;;;2.00;2.00;;;;;;;;5045876;28;46001;-81
2022/11/15 02:09:12;;;;;;;;;2.67;2.67;;;;;;;;5049214;28;45714;-83
2022/11/15 02:11:37;;;;;;;;;6.67;3.00;;;;;;;;5049004;28;45669;-79
2022/11/15 02:14:03;;;;;;;;;3.00;3.00;;;;;;;;5037603;28;45448;-80
2022/11/15 02:16:29;;;;;;;;;3.67;3.00;;;;;;;;5023156;28;45979;-81
2022/11/15 02:19:13;;;;;;;;;4.33;2.00;;;;;;;;5044348;28;47347;-81
2022/11/15 02:21:44;;;;;;;;;3.33;2.00;;;;;;;;5046213;28;45562;-81
2022/11/15 02:24:22;;;;;;;;;3.00;2.00;;;;;;;;5020483;28;45780;-80
2022/11/15 02:27:03;;;;;;;;;4.00;3.00;;;;;;;;5036334;28;45876;-81
2022/11/15 02:29:48;;;;;;;;;3.00;2.00;;;;;;;;5046311;28;46639;-80
2022/11/15 02:32:18;;;;;;;;;5.00;3.00;;;;;;;;5052728;28;45605;-80
2022/11/15 02:34:54;;;;;;;;;2.67;2.67;;;;;;;;5033762;28;45433;-80
2022/11/15 02:37:40;;;;;;;;;4.67;3.33;;;;;;;;5034230;28;46348;-80
2022/11/15 02:40:08;;;;;;;;;2.33;2.33;;;;;;;;5017415;28;46905;-81
2022/11/15 02:45:27;;;;;;;;;2.67;1.67;;;;;;;;5044156;28;45403;-79
2022/11/15 02:47:54;;;;;;;;;7.67;5.33;;;;;;;;5031487;28;45653;-81
2022/11/15 02:50:21;;;;;;;;;7.33;3.00;;;;;;;;5042136;28;46457;-80
2022/11/15 02:52:48;;;;;;;;;5.33;3.00;;;;;;;;5044619;28;45596;-80
2022/11/15 02:55:33;;;;;;;;;5.67;4.00;;;;;;;;5059560;28;45619;-81
2022/11/15 02:58:16;;;;;;;;;4.00;4.00;;;;;;;;5040090;28;45369;-79
2022/11/15 03:00:47;;;;;;;;;5.00;3.00;;;;;;;;5066103;28;45954;-80
2022/11/15 03:03:12;;;;;;;;;3.33;3.00;;;;;;;;5046850;28;45656;-80
2022/11/15 03:05:44;;;;;;;;;4.00;3.00;;;;;;;;5049499;28;45401;-81
2022/11/15 03:08:38;;;;;;;;;3.67;3.67;;;;;;;;5040499;28;45735;-80
2022/11/15 03:11:12;;;;;;;;;4.33;3.67;;;;;;;;5016519;28;46575;-80
2022/11/15 03:13:37;;;;;;;;;4.33;2.67;;;;;;;;5033013;28;45945;-79
2022/11/15 03:16:06;;;;;;;;;5.67;4.00;;;;;;;;5045599;28;45695;-80
2022/11/15 03:18:47;;;;;;;;;5.00;3.33;;;;;;;;5051231;28;45595;-80
2022/11/15 03:21:14;;;;;;;;;3.00;3.00;;;;;;;;5050832;28;46320;-81
2022/11/15 03:23:39;;;;;;;;;3.00;3.00;;;;;;;;5048585;28;45381;-79
2022/11/15 03:26:06;;;;;;;;;6.33;4.33;;;;;;;;5046673;28;46079;-79
2022/11/15 03:28:39;;;;;;;;;4.00;4.00;;;;;;;;5048780;28;45799;-80
2022/11/15 03:31:46;;;;;;;;;6.00;3.00;;;;;;;;5069165;28;47308;-80
2022/11/15 03:33:53;;;;;;;;;7.67;4.00;;;;;;;;5076630;27;45209;-80
2022/11/15 03:36:19;;;;;;;;;5.00;3.00;;;;;;;;5073332;28;45588;-82
2022/11/15 03:38:45;;;;;;;;;6.67;4.33;;;;;;;;5072787;28;45768;-80
2022/11/15 03:41:23;;;;;;;;;4.00;3.33;;;;;;;;5065589;28;45225;-81
2022/11/15 03:43:49;;;;;;;;;4.67;3.33;;;;;;;;5068266;28;45316;-80
2022/11/15 03:46:16;;;;;;;;;2.00;2.00;;;;;;;;5056869;28;45312;-80
2022/11/15 03:48:48;;;;;;;;;4.00;3.00;;;;;;;;5064213;28;45986;-79
2022/11/15 03:51:14;;;;;;;;;4.33;3.00;;;;;;;;5077922;28;45310;-79
2022/11/15 03:53:40;;;;;;;;;7.33;3.00;;;;;;;;5064949;28;44681;-80
2022/11/15 03:56:06;;;;;;;;;7.00;4.33;;;;;;;;5072029;28;45435;-81
2022/11/15 03:58:31;;;;;;;;;2.00;1.33;;;;;;;;5075677;28;45746;-78
2022/11/15 04:00:56;;;;;;;;;4.00;4.00;;;;;;;;5037945;28;47421;-80
2022/11/15 04:03:22;;;;;;;;;2.00;2.00;;;;;;;;5063646;28;45838;-79
2022/11/15 04:05:47;;;;;;;;;5.00;3.00;;;;;;;;5047153;28;45698;-79
2022/11/15 04:08:12;;;;;;;;;2.00;2.00;;;;;;;;5063706;28;45488;-81
2022/11/15 04:10:39;;;;;;;;;5.00;3.33;;;;;;;;5082209;28;45885;-83
2022/11/15 04:13:04;;;;;;;;;3.00;3.00;;;;;;;;5048536;28;45864;-82
2022/11/15 04:15:29;;;;;;;;;1.67;1.67;;;;;;;;5056655;28;45513;-80
2022/11/15 04:17:56;;;;;;;;;4.00;4.00;;;;;;;;5046735;28;46531;-82
2022/11/15 04:26:20;;;;;;;;;8.00;3.00;;;;;;;;5063461;28;45271;-82
2022/11/15 04:31:29;;;;;;;;;4.00;2.00;;;;;;;;5069069;28;45322;-80
2022/11/15 04:33:55;;;;;;;;;4.00;3.00;;;;;;;;5067259;28;45435;-80
2022/11/15 04:39:04;;;;;;;;;6.33;4.00;;;;;;;;5063625;28;45774;-79
2022/11/15 04:41:30;;;;;;;;;4.67;4.00;;;;;;;;5059713;28;45329;-80
2022/11/15 04:43:55;;;;;;;;;5.00;3.00;;;;;;;;5048440;28;45706;-80
2022/11/15 04:46:21;;;;;;;;;2.67;2.67;;;;;;;;5034587;28;45843;-79
2022/11/15 04:48:47;;;;;;;;;3.00;2.00;;;;;;;;5059820;28;45468;-79
2022/11/15 04:51:12;;;;;;;;;3.00;2.00;;;;;;;;5056297;28;45513;-78
2022/11/15 04:53:38;;;;;;;;;3.67;3.67;;;;;;;;5058365;28;45622;-80
2022/11/15 04:56:04;;;;;;;;;3.00;3.00;;;;;;;;5038175;28;45297;-79
2022/11/15 04:58:29;;;;;;;;;2.67;2.00;;;;;;;;5055249;28;45359;-79
2022/11/15 05:00:55;;;;;;;;;4.67;1.00;;;;;;;;5037522;28;47562;-83
2022/11/15 05:06:05;;;;;;;;;6.67;2.67;;;;;;;;5041167;28;45743;-79
2022/11/15 05:08:30;;;;;;;;;3.00;3.00;;;;;;;;5022193;28;46006;-79
2022/11/15 05:10:55;;;;;;;;;2.67;2.67;;;;;;;;5047816;28;46791;-79
2022/11/15 05:13:21;;;;;;;;;4.00;2.33;;;;;;;;5027874;28;45693;-79
2022/11/15 05:15:46;;;;;;;;;3.00;2.67;;;;;;;;5073430;28;45858;-80
2022/11/15 05:18:12;;;;;;;;;2.00;2.00;;;;;;;;5044672;28;46069;-80
2022/11/15 05:20:37;;;;;;;;;2.67;2.67;;;;;;;;5054406;28;46993;-80
2022/11/15 05:23:02;;;;;;;;;3.00;2.33;;;;;;;;5034662;28;44774;-79
2022/11/15 05:25:28;;;;;;;;;3.33;3.00;;;;;;;;5039655;28;45586;-80
2022/11/15 05:27:53;;;;;;;;;3.00;2.00;;;;;;;;5049330;28;45711;-78
2022/11/15 05:30:18;;;;;;;;;2.67;1.67;;;;;;;;5071480;28;46265;-80
2022/11/15 05:32:44;;;;;;;;;4.00;2.67;;;;;;;;5084362;28;45725;-81
2022/11/15 05:35:14;;;;;;;;;2.67;2.67;;;;;;;;5032564;28;45140;-81
2022/11/15 05:37:40;;;;;;;;;5.00;4.00;;;;;;;;5055263;28;45499;-81
2022/11/15 05:40:05;;;;;;;;;3.00;1.33;;;;;;;;5044085;28;47257;-82
2022/11/15 05:42:31;;;;;;;;;5.00;4.00;;;;;;;;5039941;28;45313;-80
2022/11/15 05:44:57;;;;;;;;;4.00;3.00;;;;;;;;5053228;28;45584;-82
2022/11/15 05:47:25;;;;;;;;;6.00;3.00;;;;;;;;5039760;28;45534;-82
2022/11/15 05:50:02;;;;;;;;;3.00;3.00;;;;;;;;5060246;28;45555;-78
2022/11/15 05:52:30;;;;;;;;;4.33;3.00;;;;;;;;5032660;28;45700;-78
2022/11/15 05:54:56;;;;;;;;;4.00;4.00;;;;;;;;5064290;28;45272;-78
2022/11/15 05:57:21;;;;;;;;;4.33;4.00;;;;;;;;5049748;28;45493;-78
2022/11/15 05:59:47;;;;;;;;;4.00;3.00;;;;;;;;5058162;28;46451;-85
2022/11/15 06:02:13;;;;;;;;;7.00;5.67;;;;;;;;5066945;28;44951;-86
2022/11/15 06:04:39;;;;;;;;;5.33;5.33;;;;;;;;5083845;28;45399;-87
2022/11/15 06:07:05;;;;;;;;;6.67;5.33;;;;;;;;5050973;28;45955;-86
2022/11/15 06:09:30;;;;;;;;;8.33;4.33;;;;;;;;5065517;28;45395;-84
2022/11/15 06:11:56;;;;;;;;;5.00;5.00;;;;;;;;5044582;28;44876;-79
2022/11/15 06:14:21;;;;;;;;;6.33;4.67;;;;;;;;5041995;28;45516;-78
2022/11/15 06:16:46;;;;;;;;;4.00;4.00;;;;;;;;5048232;28;45548;-80
2022/11/15 06:19:15;;;;;;;;;7.67;7.33;;;;;;;;5054624;28;45824;-79
2022/11/15 06:21:40;;;;;;;;;6.33;6.33;;;;;;;;5049496;28;45430;-81
2022/11/15 06:24:06;;;;;;;;;8.33;8.33;;;;;;;;5060873;28;45644;-82
2022/11/15 06:26:44;;;;;;;;;6.67;4.33;;;;;;;;5059551;28;45591;-87
2022/11/15 06:29:10;;;;;;;;;7.00;4.67;;;;;;;;5056535;28;46503;-86
2022/11/15 06:31:45;;;;;;;;;7.33;6.33;;;;;;;;5044884;28;45982;-81
2022/11/15 06:34:21;;;;;;;;;5.00;4.00;;;;;;;;5055722;28;45423;-83
2022/11/15 06:37:29;;;;;;;;;;;;;;;;;;;;;
2022/11/15 06:40:15;;;;;;;;;6.33;4.00;;;;;;;;4947935;28;45619;-86
2022/11/15 06:48:50;;;;;;;;;4.67;4.67;;;;;;;;5046696;28;45798;-81
2022/11/15 06:51:15;;;;;;;;;5.67;5.67;;;;;;;;5027957;28;46090;-81
2022/11/15 06:53:41;;;;;;;;;6.33;4.33;;;;;;;;5051875;28;45584;-87
2022/11/15 06:56:07;;;;;;;;;6.00;6.00;;;;;;;;5060517;28;44812;-83
2022/11/15 07:01:35;;;;;;;;;5.67;5.67;;;;;;;;5055291;28;45483;-85
2022/11/15 07:04:01;;;;;;;;;8.00;5.67;;;;;;;;5038767;28;45516;-82
2022/11/15 07:06:29;;;;;;;;;6.00;4.00;;;;;;;;5044705;28;45480;-82
2022/11/15 07:09:03;;;;;;;;;7.00;5.00;;;;;;;;5054526;28;46249;-81
2022/11/15 07:12:04;;;;;;;;;4.33;4.33;;;;;;;;5068248;28;45102;-82
2022/11/15 07:14:42;;;;;;;;;10.67;6.67;;;;;;;;4948593;28;45383;-84
2022/11/15 07:22:50;;;;;;;;;9.00;9.00;;;;;;;;5057857;28;47096;-66
2022/11/15 07:25:15;;;;;;;;;5.67;4.00;;;;;;;;5066230;27;46172;-65
2022/11/15 07:27:40;;;;;;;;;8.33;8.00;;;;;;;;5056994;28;45672;-67
2022/11/15 07:30:06;;;;;;;;;7.00;5.33;;;;;;;;5069035;27;45804;-68
2022/11/15 07:32:31;;;;;;;;;9.67;7.00;;;;;;;;5061415;27;45475;-65
2022/11/15 07:34:56;;;;;;;;;7.00;5.67;;;;;;;;5075364;27;45720;-65
2022/11/15 07:37:22;;;;;;;;;6.33;5.33;;;;;;;;5061546;28;45841;-66
2022/11/15 07:39:47;;;;;;;;;5.00;5.00;;;;;;;;5067798;28;45560;-66
2022/11/15 07:44:56;;;;;;;;;3.33;3.00;;;;;;;;5074920;28;45383;-64
2022/11/15 07:47:22;;;;;;;;;5.00;4.00;;;;;;;;5047269;28;45423;-65
2022/11/15 07:49:47;;;;;;;;;8.00;5.00;;;;;;;;5065912;28;45974;-66
2022/11/15 07:52:13;;;;;;;;;6.33;5.00;;;;;;;;5056035;28;46171;-64
2022/11/15 07:54:39;;;;;;;;;5.67;4.00;;;;;;;;5056013;28;45896;-65
2022/11/15 07:57:04;;;;;;;;;5.00;5.00;;;;;;;;5051215;28;45515;-67
2022/11/15 07:59:29;;;;;;;;;4.00;4.00;;;;;;;;5052737;28;47094;-65
2022/11/15 08:01:54;;;;;;;;;7.67;5.00;;;;;;;;5065054;28;46780;-66
2022/11/15 08:04:20;;;;;;;;;0.00;0.00;;;;;;;;5069293;28;45369;-69
2022/11/15 08:06:46;;;;;;;;;3.67;3.00;;;;;;;;5075484;27;45626;-66
2022/11/15 08:09:11;;;;;;;;;3.00;3.00;;;;;;;;5068050;28;45426;-65
2022/11/15 08:11:37;;;;;;;;;3.33;3.33;;;;;;;;5056088;27;47915;-66
2022/11/15 08:14:02;;;;;;;;;5.67;4.00;;;;;;;;5079554;27;45793;-65
2022/11/15 08:16:27;;;;;;;;;6.00;4.00;;;;;;;;5056224;28;45946;-66
2022/11/15 08:18:52;;;;;;;;;6.00;5.00;;;;;;;;5056568;28;46898;-67
2022/11/15 08:21:19;;;;;;;;;8.00;6.00;;;;;;;;5069256;28;45400;-64
2022/11/15 08:23:44;;;;;;;;;4.00;4.00;;;;;;;;5041740;27;45346;-66
2022/11/15 08:26:09;;;;;;;;;5.67;5.00;;;;;;;;5054154;28;45592;-66
2022/11/15 08:28:35;;;;;;;;;5.67;5.00;;;;;;;;5065769;28;45815;-65
2022/11/15 08:31:00;;;;;;;;;4.67;4.33;;;;;;;;5072673;28;45808;-64
2022/11/15 08:33:26;;;;;;;;;5.67;5.67;;;;;;;;5060447;27;45926;-64
2022/11/15 08:35:52;;;;;;;;;5.00;3.67;;;;;;;;5079587;27;45519;-64
2022/11/15 08:38:17;;;;;;;;;7.67;5.00;;;;;;;;5062747;28;45602;-65
2022/11/15 08:40:42;;;;;;;;;3.67;3.67;;;;;;;;5054218;28;46415;-65
2022/11/15 08:43:07;;;;;;;;;5.33;4.67;;;;;;;;5072703;28;45533;-64
2022/11/15 08:45:34;;;;;;;;;5.00;4.00;;;;;;;;5058095;28;45749;-65
2022/11/15 08:48:00;;;;;;;;;4.00;4.00;;;;;;;;5068354;27;45561;-67
2022/11/15 08:50:25;;;;;;;;;3.00;3.00;;;;;;;;5048772;28;46683;-65
2022/11/15 08:52:51;;;;;;;;;3.00;3.00;;;;;;;;5070571;27;45351;-64
2022/11/15 08:55:16;;;;;;;;;5.00;5.00;;;;;;;;5081165;27;45529;-65
2022/11/15 08:57:41;;;;;;;;;8.00;5.00;;;;;;;;5063570;28;45929;-65
2022/11/15 09:00:07;;;;;;;;;4.33;3.33;;;;;;;;5065910;28;46349;-64
2022/11/15 09:02:32;;;;;;;;;3.33;2.67;;;;;;;;5065632;28;45727;-64
2022/11/15 09:04:57;;;;;;;;;5.00;3.33;;;;;;;;5065886;28;45375;-65
2022/11/15 09:07:22;;;;;;;;;6.00;4.67;;;;;;;;5069535;28;45257;-64
2022/11/15 09:09:48;;;;;;;;;4.00;4.00;;;;;;;;5065716;28;45486;-66
2022/11/15 09:12:13;;;;;;;;;3.00;2.33;;;;;;;;5054892;28;46134;-64
2022/11/15 09:14:38;;;;;;;;;6.00;6.00;;;;;;;;5065451;28;45724;-65
2022/11/15 09:17:06;;;;;;;;;5.33;4.00;;;;;;;;5049168;28;47133;-65
2022/11/15 09:19:32;;;;;;;;;4.67;3.67;;;;;;;;5068395;28;46098;-65
2022/11/15 09:21:57;;;;;;;;;5.33;2.67;;;;;;;;5035778;28;45453;-65
2022/11/15 09:24:22;;;;;;;;;6.00;1.67;;;;;;;;5050031;28;45408;-64
2022/11/15 09:26:49;;;;;;;;;4.33;3.00;;;;;;;;5052255;28;45397;-64
2022/11/15 09:29:14;;;;;;;;;2.67;2.67;;;;;;;;5053339;28;45506;-65
2022/11/15 09:31:39;;;;;;;;;2.67;2.67;;;;;;;;5033549;28;45722;-65
2022/11/15 09:34:05;;;;;;;;;5.00;2.33;;;;;;;;5052209;28;45642;-65
2022/11/15 09:36:30;;;;;;;;;5.00;4.33;;;;;;;;5035461;28;45751;-64
2022/11/15 09:38:57;;;;;;;;;3.33;3.33;;;;;;;;5019951;28;47938;-68
2022/11/15 09:41:49;;;;;;;;;2.00;2.00;;;;;;;;5045651;28;45406;-67
2022/11/15 09:44:20;;;;;;;;;7.00;4.33;;;;;;;;5011231;28;45844;-67
2022/11/15 09:47:14;;;;;;;;;4.33;2.00;;;;;;;;5042508;28;45987;-65
2022/11/15 09:49:39;;;;;;;;;2.00;2.00;;;;;;;;5032658;28;45850;-65
2022/11/15 09:52:07;;;;;;;;;1.67;1.67;;;;;;;;5046277;28;45373;-65
2022/11/15 09:54:37;;;;;;;;;2.00;1.67;;;;;;;;5043113;28;45637;-66
2022/11/15 09:57:08;;;;;;;;;4.67;2.67;;;;;;;;5040059;28;45407;-65
2022/11/15 09:59:40;;;;;;;;;1.33;1.33;;;;;;;;5039110;28;46660;-65
2022/11/15 10:02:23;;;;;;;;;5.67;2.67;;;;;;;;5040686;28;45761;-64
2022/11/15 10:04:48;;;;;;;;;2.00;2.00;;;;;;;;5041212;28;45797;-65
2022/11/15 10:07:13;;;;;;;;;2.67;2.00;;;;;;;;5006659;28;47372;-65
2022/11/15 10:09:51;;;;;;;;;4.00;2.33;;;;;;;;5038349;28;46108;-68
2022/11/15 10:12:17;;;;;;;;;1.00;1.00;;;;;;;;5039796;28;45832;-65
2022/11/15 10:14:42;;;;;;;;;3.67;3.67;;;;;;;;5021414;28;45402;-64
2022/11/15 10:17:28;;;;;;;;;2.67;2.67;;;;;;;;5035287;28;45417;-65
2022/11/15 10:20:03;;;;;;;;;4.33;3.00;;;;;;;;5010278;28;45398;-66
2022/11/15 10:22:28;;;;;;;;;2.67;2.67;;;;;;;;5022030;28;45681;-64
2022/11/15 10:25:19;;;;;;;;;3.33;3.00;;;;;;;;5035562;28;45552;-63
2022/11/15 10:27:50;;;;;;;;;4.00;2.00;;;;;;;;5016307;28;45762;-64
2022/11/15 10:30:17;;;;;;;;;4.00;4.00;;;;;;;;5028224;28;48440;-65
2022/11/15 10:32:43;;;;;;;;;4.00;4.00;;;;;;;;5044056;28;45493;-64
2022/11/15 10:35:23;;;;;;;;;6.00;4.00;;;;;;;;5032051;28;45663;-62
2022/11/15 10:37:48;;;;;;;;;4.67;3.00;;;;;;;;5041821;28;45862;-63
2022/11/15 10:40:18;;;;;;;;;3.00;3.00;;;;;;;;5037453;28;45885;-65
2022/11/15 10:42:44;;;;;;;;;4.00;4.00;;;;;;;;5035996;28;45799;-66
2022/11/15 10:45:30;;;;;;;;;6.33;3.33;;;;;;;;5035723;28;45906;-64
2022/11/15 10:48:15;;;;;;;;;1.00;0.00;;;;;;;;5024486;28;45728;-66
2022/11/15 10:50:44;;;;;;;;;8.67;5.00;;;;;;;;5046778;28;45793;-68
2022/11/15 10:53:29;;;;;;;;;5.33;4.00;;;;;;;;5040409;28;45821;-68
2022/11/15 10:55:57;;;;;;;;;4.00;3.00;;;;;;;;5042194;28;45640;-67
2022/11/15 10:58:22;;;;;;;;;4.33;2.00;;;;;;;;5039888;28;47003;-69
2022/11/15 11:00:47;;;;;;;;;3.67;2.00;;;;;;;;5039374;28;45749;-67
2022/11/15 11:03:27;;;;;;;;;5.00;4.00;;;;;;;;5022700;28;45553;-67
2022/11/15 11:06:03;;;;;;;;;6.67;4.00;;;;;;;;5042763;28;45509;-69
2022/11/15 11:08:34;;;;;;;;;2.00;2.00;;;;;;;;5028955;28;46194;-69
2022/11/15 11:11:13;;;;;;;;;6.33;5.33;;;;;;;;5052669;28;45521;-69
2022/11/15 11:13:51;;;;;;;;;6.67;3.00;;;;;;;;5045684;28;45293;-69
2022/11/15 11:16:31;;;;;;;;;4.33;3.67;;;;;;;;5037231;28;45870;-70
2022/11/15 11:18:56;;;;;;;;;7.33;5.00;;;;;;;;5046481;28;45670;-69
2022/11/15 11:21:40;;;;;;;;;3.00;2.67;;;;;;;;5055482;28;46162;-69
2022/11/15 11:24:25;;;;;;;;;3.67;2.33;;;;;;;;5053639;28;45971;-70
2022/11/15 11:27:08;;;;;;;;;3.67;2.67;;;;;;;;5041054;28;45502;-69
2022/11/15 11:29:36;;;;;;;;;3.33;3.33;;;;;;;;5058734;28;45697;-66
2022/11/15 11:32:20;;;;;;;;;6.33;5.00;;;;;;;;5062815;27;45868;-69
2022/11/15 11:34:51;;;;;;;;;4.33;3.33;;;;;;;;5061369;28;45616;-68
2022/11/15 11:37:16;;;;;;;;;3.67;2.67;;;;;;;;5050062;28;45871;-69
2022/11/15 11:39:53;;;;;;;;;7.33;6.00;;;;;;;;5061520;28;45395;-69
2022/11/15 11:42:42;;;;;;;;;5.67;5.33;;;;;;;;5061830;28;45451;-69
2022/11/15 11:45:26;;;;;;;;;6.00;3.33;;;;;;;;5063727;28;45449;-68
2022/11/15 11:47:53;;;;;;;;;5.67;4.67;;;;;;;;5062452;27;45624;-68
2022/11/15 11:50:20;;;;;;;;;5.33;5.00;;;;;;;;5065437;28;45782;-69
2022/11/15 11:52:58;;;;;;;;;4.67;4.67;;;;;;;;5068354;28;46058;-71
2022/11/15 11:55:26;;;;;;;;;5.33;4.33;;;;;;;;5063086;28;45459;-75
2022/11/15 11:57:51;;;;;;;;;5.67;5.67;;;;;;;;5063851;28;45820;-70
2022/11/15 12:00:23;;;;;;;;;6.33;6.33;;;;;;;;5065529;27;45515;-68
2022/11/15 12:02:48;;;;;;;;;5.67;4.33;;;;;;;;5054344;28;48460;-68
2022/11/15 12:05:19;;;;;;;;;5.67;5.67;;;;;;;;5067484;28;45741;-69
2022/11/15 12:07:46;;;;;;;;;4.33;2.00;;;;;;;;5052494;28;45484;-70
2022/11/15 12:10:11;;;;;;;;;5.67;5.67;;;;;;;;5068046;28;45622;-71
2022/11/15 12:12:37;;;;;;;;;7.67;4.33;;;;;;;;5067485;28;45618;-71
2022/11/15 12:15:08;;;;;;;;;3.67;3.67;;;;;;;;5072725;28;45967;-70
2022/11/15 12:17:33;;;;;;;;;5.67;5.00;;;;;;;;5054921;28;45732;-70
2022/11/15 12:20:03;;;;;;;;;9.67;8.33;;;;;;;;5069121;28;45883;-71
2022/11/15 12:22:28;;;;;;;;;8.67;5.00;;;;;;;;5073444;28;46241;-70
2022/11/15 12:24:56;;;;;;;;;4.00;2.00;;;;;;;;5072025;27;45419;-69
2022/11/15 12:27:33;;;;;;;;;6.00;6.00;;;;;;;;5072212;28;45661;-67
2022/11/15 12:30:00;;;;;;;;;7.33;6.33;;;;;;;;5070254;28;45529;-68
2022/11/15 12:32:31;;;;;;;;;8.33;6.33;;;;;;;;5063065;28;46190;-68
2022/11/15 12:34:57;;;;;;;;;8.67;6.67;;;;;;;;5070941;27;45437;-69
2022/11/15 12:37:37;;;;;;;;;7.67;6.33;;;;;;;;5060690;28;45673;-67
2022/11/15 12:40:20;;;;;;;;;4.00;4.00;;;;;;;;5069094;27;45490;-71
2022/11/15 12:43:04;;;;;;;;;6.67;5.67;;;;;;;;5073857;28;45488;-71
2022/11/15 12:45:34;;;;;;;;;3.67;3.67;;;;;;;;5055621;28;45564;-70
2022/11/15 12:48:17;;;;;;;;;6.67;4.00;;;;;;;;5059832;27;45736;-69
2022/11/15 12:50:53;;;;;;;;;5.67;4.33;;;;;;;;5065391;28;45778;-71
2022/11/15 12:53:25;;;;;;;;;6.33;5.00;;;;;;;;5058644;27;45730;-70
2022/11/15 12:56:02;;;;;;;;;6.33;5.33;;;;;;;;5058632;28;45815;-71
2022/11/15 12:58:39;;;;;;;;;8.33;6.33;;;;;;;;5056951;27;47298;-70
2022/11/15 13:01:06;;;;;;;;;5.67;4.33;;;;;;;;5077334;27;45492;-69
2022/11/15 13:03:31;;;;;;;;;5.00;5.00;;;;;;;;5077101;27;45795;-69
2022/11/15 13:05:59;;;;;;;;;6.33;6.33;;;;;;;;5070206;28;44859;-69
2022/11/15 13:08:38;;;;;;;;;5.67;4.00;;;;;;;;5061385;27;46305;-69
2022/11/15 13:11:22;;;;;;;;;8.67;7.33;;;;;;;;5050903;28;45475;-70
2022/11/15 13:13:47;;;;;;;;;7.33;7.00;;;;;;;;5060392;28;45912;-68
2022/11/15 13:16:19;;;;;;;;;7.33;5.67;;;;;;;;5064090;27;46006;-69
2022/11/15 13:18:52;;;;;;;;;9.67;5.67;;;;;;;;5058140;28;45790;-68
2022/11/15 13:24:04;;;;;;;;;10.67;8.67;;;;;;;;5056602;28;45757;-65
2022/11/15 13:26:30;;;;;;;;;6.00;5.67;;;;;;;;5057618;28;45513;-67
2022/11/15 13:28:56;;;;;;;;;8.00;7.00;;;;;;;;5060393;28;45694;-68
2022/11/15 13:31:47;;;;;;;;;6.33;6.00;;;;;;;;5062137;28;45691;-69
2022/11/15 13:34:22;;;;;;;;;7.67;7.33;;;;;;;;5054847;27;45428;-68
2022/11/15 13:36:47;;;;;;;;;9.67;6.67;;;;;;;;5065664;28;45763;-69
2022/11/15 13:39:25;;;;;;;;;9.00;6.33;;;;;;;;5069426;28;45728;-69
2022/11/15 13:41:50;;;;;;;;;6.33;6.33;;;;;;;;5038004;28;45830;-68
2022/11/15 13:44:29;;;;;;;;;7.33;7.33;;;;;;;;5066706;28;45370;-69
2022/11/15 13:47:24;;;;;;;;;4.67;4.67;;;;;;;;5064207;28;45357;-66
2022/11/15 13:49:49;;;;;;;;;8.33;6.67;;;;;;;;5046564;28;46157;-65
2022/11/15 13:52:16;;;;;;;;;4.67;4.00;;;;;;;;5065730;28;45365;-66
2022/11/15 13:54:46;;;;;;;;;5.00;4.00;;;;;;;;5061809;27;45721;-66
2022/11/15 13:57:21;;;;;;;;;4.00;4.00;;;;;;;;5049158;28;46107;-67
2022/11/15 13:59:50;;;;;;;;;4.00;3.67;;;;;;;;5066481;28;45393;-65
2022/11/15 14:02:19;;;;;;;;;3.33;3.33;;;;;;;;5059217;28;45295;-66
2022/11/15 14:04:47;;;;;;;;;5.00;3.67;;;;;;;;5046595;28;46314;-67
2022/11/15 14:07:19;;;;;;;;;5.00;5.00;;;;;;;;5065762;27;45502;-65
2022/11/15 14:09:46;;;;;;;;;4.00;4.00;;;;;;;;5064644;28;45627;-65
2022/11/15 14:12:29;;;;;;;;;5.00;5.00;;;;;;;;5065072;28;45833;-65
2022/11/15 14:14:54;;;;;;;;;7.00;5.33;;;;;;;;5060484;28;45800;-66
2022/11/15 14:17:21;;;;;;;;;7.33;4.00;;;;;;;;5064794;28;45356;-68
2022/11/15 14:19:46;;;;;;;;;7.33;4.00;;;;;;;;5058800;28;45479;-69
2022/11/15 14:22:25;;;;;;;;;6.67;3.00;;;;;;;;5060055;28;45647;-65
2022/11/15 14:25:09;;;;;;;;;5.00;5.00;;;;;;;;5067726;28;46030;-65
2022/11/15 14:27:34;;;;;;;;;7.00;7.00;;;;;;;;5059658;28;45417;-64
2022/11/15 14:30:00;;;;;;;;;7.67;7.67;;;;;;;;5043642;28;45484;-67
2022/11/15 14:32:27;;;;;;;;;4.33;4.00;;;;;;;;5060581;28;45744;-67
2022/11/15 14:34:56;;;;;;;;;4.00;4.00;;;;;;;;5056512;28;45378;-68
2022/11/15 14:37:24;;;;;;;;;8.33;6.33;;;;;;;;5060674;28;45431;-69
2022/11/15 14:39:49;;;;;;;;;7.00;5.33;;;;;;;;5060659;28;45339;-69
2022/11/15 14:42:15;;;;;;;;;8.00;7.67;;;;;;;;5059827;28;45902;-68
2022/11/15 14:44:40;;;;;;;;;7.33;6.00;;;;;;;;5057204;28;45506;-67
2022/11/15 14:47:05;;;;;;;;;8.67;7.00;;;;;;;;5056179;28;45733;-72
2022/11/15 14:49:30;;;;;;;;;9.00;6.00;;;;;;;;5055373;27;45840;-71
2022/11/15 14:51:56;;;;;;;;;7.00;4.67;;;;;;;;5058388;27;46479;-71
2022/11/15 14:54:21;;;;;;;;;8.00;7.00;;;;;;;;5060294;27;46042;-69
2022/11/15 14:56:49;;;;;;;;;7.00;7.00;;;;;;;;5056730;28;45705;-68
2022/11/15 14:59:14;;;;;;;;;10.00;7.00;;;;;;;;5061614;28;45683;-67
2022/11/15 15:01:39;;;;;;;;;5.67;5.33;;;;;;;;5043473;28;46992;-66
2022/11/15 15:04:05;;;;;;;;;10.33;7.33;;;;;;;;5036990;28;48189;-65
2022/11/15 15:06:30;;;;;;;;;7.67;6.67;;;;;;;;5043503;28;45760;-65
2022/11/15 15:08:56;;;;;;;;;6.33;6.33;;;;;;;;5072451;27;45714;-65
2022/11/15 15:11:23;;;;;;;;;5.33;5.33;;;;;;;;5073371;27;45383;-66
2022/11/15 15:13:49;;;;;;;;;5.33;5.33;;;;;;;;5068229;28;45351;-66
2022/11/15 15:16:14;;;;;;;;;6.00;5.33;;;;;;;;5071263;28;45383;-66
2022/11/15 15:18:39;;;;;;;;;7.33;7.00;;;;;;;;5064809;27;46350;-67
2022/11/15 15:21:13;;;;;;;;;8.00;4.00;;;;;;;;5069051;28;45388;-68
2022/11/15 15:23:38;;;;;;;;;6.00;5.67;;;;;;;;5053110;28;47986;-67
2022/11/15 15:26:04;;;;;;;;;5.33;4.33;;;;;;;;5077053;27;45408;-66
2022/11/15 15:28:29;;;;;;;;;6.00;6.00;;;;;;;;5062993;27;45338;-66
2022/11/15 15:30:54;;;;;;;;;7.00;5.33;;;;;;;;5066811;28;45606;-65
2022/11/15 15:33:19;;;;;;;;;7.67;6.33;;;;;;;;5063232;28;46379;-66